createdAt,value
2019-02-24T02:42:26.653Z,48.10
2019-02-24T02:50:16.509Z,48.00
2019-02-24T02:53:04.464Z,48.00
2019-02-24T03:19:24.956Z,47.50
2019-02-24T03:22:32.722Z,47.70
2019-02-24T03:25:12.461Z,47.60
2019-02-24T03:28:01.226Z,47.50
2019-02-24T03:30:42.865Z,47.50
2019-02-24T03:43:53.958Z,47.60
2019-02-24T03:46:32.620Z,47.60
2019-02-24T03:54:19.985Z,47.70
2019-02-24T03:57:08.769Z,47.70
2019-02-24T03:59:49.907Z,47.60
2019-02-24T04:10:16.136Z,47.50
2019-02-24T04:12:57.452Z,47.50
2019-02-24T04:15:39.424Z,47.50
2019-02-24T04:18:20.511Z,47.60
2019-02-24T04:21:01.866Z,47.60
2019-02-24T04:23:42.951Z,47.60
2019-02-24T04:26:24.396Z,47.60
2019-02-24T04:29:05.842Z,47.50
2019-02-24T04:31:47.413Z,47.50
2019-02-24T04:34:28.941Z,47.60
2019-02-24T04:37:08.706Z,47.60
2019-02-24T04:39:57.558Z,47.60
2019-02-24T04:42:38.621Z,47.50
2019-02-24T04:45:19.886Z,47.40
2019-02-24T04:48:00.979Z,47.30
2019-02-24T04:50:42.553Z,47.20
2019-02-24T04:53:23.788Z,47.20
2019-02-24T04:56:05.356Z,47.30
2019-02-24T04:58:47.101Z,47.20
2019-02-24T05:01:26.878Z,47.20
2019-02-24T05:04:15.612Z,47.20
2019-02-24T05:06:56.713Z,47.20
2019-02-24T05:09:26.510Z,47.30
2019-02-24T05:12:15.333Z,47.30
2019-02-24T05:14:56.646Z,47.20
2019-02-24T05:54:30.201Z,46.40
2019-02-24T05:57:11.535Z,46.40
2019-02-24T05:59:55.489Z,46.20
2019-02-24T06:18:17.994Z,44.90
2019-02-24T06:20:57.796Z,44.80
2019-02-24T06:23:37.615Z,44.80
2019-02-24T06:26:17.152Z,44.40
2019-02-24T06:28:58.381Z,44.20
2019-02-24T06:31:37.880Z,44.10
2019-02-24T06:34:26.572Z,44.00
2019-02-24T06:37:07.928Z,43.90
2019-02-24T06:39:48.998Z,44.00
2019-02-24T06:42:30.468Z,43.80
2019-02-24T06:45:12.194Z,43.80
2019-02-24T06:47:53.719Z,43.60
2019-02-24T06:50:52.000Z,43.50
2019-02-24T06:53:40.880Z,43.40
2019-02-24T06:56:23.676Z,43.40
2019-02-24T06:59:05.574Z,43.30
2019-02-24T07:01:46.870Z,43.10
2019-02-24T07:04:28.259Z,42.90
2019-02-24T07:07:09.698Z,42.80
2019-02-24T07:09:51.192Z,42.80
2019-02-24T07:12:32.013Z,42.50
2019-02-24T07:15:13.179Z,42.50
2019-02-24T07:17:52.697Z,42.40
2019-02-24T07:20:41.575Z,42.30
2019-02-24T07:23:21.255Z,42.00
2019-02-24T07:26:10.085Z,41.80
2019-02-24T07:28:51.460Z,42.20
2019-02-24T07:31:32.538Z,41.40
2019-02-24T07:34:12.100Z,41.30
2019-02-24T07:36:51.717Z,41.20
2019-02-24T07:39:32.754Z,40.90
2019-02-24T07:42:14.008Z,40.90
2019-02-24T07:44:53.833Z,40.90
2019-02-24T07:47:42.670Z,40.80
2019-02-24T07:50:23.772Z,40.60
2019-02-24T07:53:03.459Z,40.60
2019-02-24T07:55:52.234Z,40.50
2019-02-24T07:58:22.049Z,40.60
2019-02-24T08:01:10.740Z,40.40
2019-02-24T08:03:52.063Z,40.50
2019-02-24T08:06:33.240Z,40.30
2019-02-24T08:09:13.019Z,40.60
2019-02-24T08:11:42.789Z,40.60
2019-02-24T08:19:30.377Z,40.80
2019-02-24T08:22:38.315Z,40.80
2019-02-24T08:27:59.636Z,40.80
2019-02-24T09:36:50.270Z,39.00
2019-02-24T09:39:31.646Z,38.90
2019-02-24T09:42:13.302Z,38.60
2019-02-24T09:44:54.624Z,38.70
2019-02-24T09:47:36.019Z,38.60
2019-02-24T09:50:17.369Z,38.70
2019-02-24T09:52:58.577Z,38.70
2019-02-24T09:55:47.284Z,38.60
2019-02-24T09:58:28.153Z,38.00
2019-02-24T11:01:52.489Z,34.20
2019-02-24T11:54:39.093Z,30.00
2019-02-24T12:31:56.524Z,29.90
2019-02-24T12:34:43.446Z,30.00
2019-02-24T12:37:24.956Z,29.90
2019-02-24T12:48:02.719Z,30.90
2019-02-24T12:50:51.588Z,29.40
2019-02-24T12:53:33.045Z,29.20
2019-02-24T12:58:53.501Z,29.00
2019-02-24T13:04:20.670Z,28.60
2019-02-24T13:17:29.137Z,27.70
2019-02-24T13:41:28.738Z,26.40
2019-02-24T13:43:58.545Z,25.20
2019-02-24T13:46:47.339Z,25.30
2019-02-24T14:39:48.111Z,21.00
2019-02-24T14:45:10.388Z,20.00
2019-02-24T15:08:52.047Z,20.70
2019-02-24T15:11:35.402Z,21.10
2019-02-24T15:14:16.755Z,21.60
2019-02-24T15:24:44.586Z,22.40
2019-02-24T15:30:08.681Z,22.60
2019-02-24T15:53:51.344Z,22.60
2019-02-24T15:56:40.614Z,22.80
2019-02-24T15:59:10.583Z,22.80
2019-02-24T16:02:00.003Z,22.80
2019-02-24T16:04:39.547Z,22.60
2019-02-24T16:07:28.388Z,22.60
2019-02-24T16:10:09.948Z,22.60
2019-02-24T16:20:41.726Z,22.90
2019-02-24T16:23:30.597Z,23.00
2019-02-24T16:26:03.109Z,23.00
2019-02-24T16:31:59.859Z,23.00
2019-02-24T16:34:30.943Z,23.00
2019-02-24T16:50:15.993Z,23.10
2019-02-24T16:53:07.197Z,22.90
2019-02-24T16:55:48.363Z,23.40
2019-02-24T17:09:13.052Z,23.00
2019-02-24T17:17:01.780Z,22.80
2019-02-24T17:30:33.649Z,23.10
2019-02-24T17:33:04.621Z,23.10
2019-02-24T17:35:54.569Z,23.10
2019-02-24T17:38:35.500Z,23.10
2019-02-24T17:43:56.113Z,23.90
2019-02-24T17:46:45.248Z,23.30
2019-02-24T18:02:48.956Z,24.10
2019-02-24T18:54:14.783Z,27.10
2019-02-24T18:56:53.732Z,26.80
2019-02-24T19:00:15.587Z,27.10
2019-02-24T19:02:56.034Z,27.30
2019-02-24T19:05:37.649Z,27.30
2019-02-24T19:19:25.955Z,27.60
2019-02-24T19:27:39.356Z,27.80
2019-02-24T19:49:01.283Z,27.70
2019-02-24T20:06:12.739Z,27.30
2019-02-24T20:14:01.493Z,27.10
2019-02-24T20:16:43.998Z,27.10
2019-02-24T20:32:51.909Z,27.80
2019-02-24T20:40:39.434Z,28.00
2019-02-24T20:43:28.348Z,28.10
2019-02-24T20:45:58.348Z,28.10
2019-02-24T20:48:47.281Z,28.20
2019-02-24T20:51:35.374Z,28.20
2019-02-24T20:56:53.260Z,28.40
2019-02-24T21:10:21.660Z,28.70
2019-02-24T21:34:28.117Z,29.20
2019-02-24T21:55:29.637Z,29.70
2019-02-24T22:40:41.755Z,31.10
2019-02-24T22:45:52.104Z,31.30
2019-02-24T23:06:54.435Z,32.80
2019-02-24T23:09:35.936Z,33.00
2019-02-24T23:12:17.769Z,33.20
2019-02-24T23:15:06.804Z,33.30
2019-02-24T23:17:55.577Z,33.50
2019-02-24T23:20:36.653Z,33.50
